RZP weather

Cesar Lim Rodriguez Airport
Taytay Airport, Sandoval Airport, Palawan Province, Philippines

Public forecast

Using degrees Celsius for public forecast. Weather courtesy of forecast.io.

METAR (pilot weather report)

Closest report is Puerto Princesa Airport, 78.3 nm (145.1 km) SW. Retrieved 2019/05/21 04:00 UTC (20 minutes ago):

RPVP 210400Z 15010KT 9999 FEW017CB 34/25 Q1010 RMK A2983 CB NNE/SW-NW

TAF (pilot weather forecast)

Forecast is more than 12 hours old.

Closest forecast is Puerto Princesa Airport, 78.3 nm (145.1 km) SW. Retrieved 2019/05/20 00:01 UTC (1 day ago):

TAF RPVP 202300Z 2100/2124 27006KT 9999 FEW019 SCT240 TEMPO 2100/2106 18010KT FEW017CB BKN080